Emerald Coast — WDC9127 — position and weather

sailwx.info

Track history (hours):
 
Tides and Currents Weather Stations Pressure Air Temp Water Temp Dewpoint Dewpoint Depression Visibility Wind Speed Wind Dir Waves Ship Positions

Emerald Coast

Owner: Dann Marine Towing, LC, Chesapeake City, MD. More information available from US FCC via Universal Licensing System and Coast Guard Vessel Documentation Center.

Last reported at 2016-Feb-08 07:33 UTC. Time now 2016-Feb-08 08:18 UTC.
Position N 40°39' W 074°06'.

Length 28 m; draft 3 m.

Type: Towing. MMSI: 367097920.

Date/timePositionNaut miles runAvg speedWind from/ knotsBaromVisibWave heightAir tempDewpointWater temp
2016-Feb-08 07:33N 40°39' W 074°06'5 5.0
2016-Feb-08 06:33N 40°40' W 074°00'1 0.8
2016-Feb-08 05:33N 40°40' W 074°01'4 4.3
2016-Feb-08 04:32N 40°39' W 074°07'2 2.4
2016-Feb-08 03:33N 40°39' W 074°10'2 1.0
2016-Feb-08 01:31N 40°39' W 074°07'3 3.1
2016-Feb-08 00:33N 40°39' W 074°11'3 2.9
2016-Feb-07 23:33N 40°41' W 074°09'0 0.0
2016-Feb-07 22:33N 40°41' W 074°09'0 0.0
2016-Feb-07 21:33N 40°41' W 074°09'0 0.0
2016-Feb-07 20:33N 40°41' W 074°09'0 0.0
2016-Feb-07 19:33N 40°41' W 074°09'0 0.0
2016-Feb-07 18:33N 40°41' W 074°09'0 0.0
2016-Feb-07 17:33N 40°41' W 074°09'1 0.9
2016-Feb-07 16:33N 40°42' W 074°08'0 0.0
2016-Feb-07 15:27N 40°42' W 074°08'0 0.0
2016-Feb-07 14:33N 40°42' W 074°08'0 0.0
2016-Feb-07 13:33N 40°42' W 074°08'0 0.0
2016-Feb-07 12:33N 40°42' W 074°08'0 0.0
2016-Feb-07 11:33N 40°42' W 074°08'0 0.0
2016-Feb-07 10:33N 40°42' W 074°08'0 0.0
2016-Feb-07 09:30N 40°42' W 074°08'0 0.0
2016-Feb-07 08:31N 40°42' W 074°08'0 0.0
2016-Feb-07 07:31N 40°42' W 074°08'0 0.0
2016-Feb-07 06:29N 40°42' W 074°08'0 0.0
2016-Feb-07 05:33N 40°42' W 074°08'0 0.3
2016-Feb-07 04:25N 40°42' W 074°09'0 0.0
2016-Feb-07 03:31N 40°42' W 074°09'0 0.0
2016-Feb-07 02:29N 40°42' W 074°09'0 0.0
2016-Feb-07 00:32N 40°42' W 074°09'0 0.0
2016-Feb-06 23:31N 40°42' W 074°09'0 0.0
2016-Feb-06 22:30N 40°42' W 074°09'0 0.2
2016-Feb-06 21:33N 40°42' W 074°08'0 0.0
2016-Feb-06 20:33N 40°42' W 074°08'0 0.0
2016-Feb-06 19:33N 40°42' W 074°08'0 0.0
2016-Feb-06 18:32N 40°42' W 074°08'0 0.0
2016-Feb-06 17:32N 40°42' W 074°08'0 0.5
2016-Feb-06 16:33N 40°41' W 074°08'0 0.0
2016-Feb-06 15:33N 40°41' W 074°08'0 0.0
2016-Feb-06 14:33N 40°41' W 074°08'0 0.0
2016-Feb-06 13:33N 40°41' W 074°08'0 0.0
2016-Feb-06 12:33N 40°41' W 074°08'0 0.0
2016-Feb-06 11:33N 40°41' W 074°08'0 0.0
2016-Feb-06 10:33N 40°41' W 074°08'0 0.0
2016-Feb-06 09:33N 40°41' W 074°08'1 1.1
2016-Feb-06 08:33N 40°40' W 074°08'2 1.6
2016-Feb-06 07:33N 40°39' W 074°08'2 2.1
2016-Feb-06 06:33N 40°39' W 074°05'0 0.0
2016-Feb-06 05:33N 40°39' W 074°05'0 0.0
2016-Feb-06 04:33N 40°39' W 074°05'0 0.0
2016-Feb-06 03:33N 40°39' W 074°05'0 0.0
2016-Feb-06 02:33N 40°39' W 074°05'0 0.0
2016-Feb-06 01:33N 40°39' W 074°05'1 0.9
2016-Feb-06 00:33N 40°39' W 074°06'1 0.1
2016-Feb-05 19:24N 40°39' W 074°07'1 1.0
2016-Feb-05 18:33N 40°39' W 074°06'1 0.1
2016-Feb-05 11:33N 40°39' W 074°05'1 1.4
2016-Feb-05 10:33N 40°39' W 074°07'2 2.3
2016-Feb-05 09:33N 40°41' W 074°08'0 0.0
2016-Feb-05 08:33N 40°41' W 074°08'2 2.3
2016-Feb-05 07:30N 40°39' W 074°06'3 3.1
2016-Feb-05 06:33N 40°41' W 074°09'1 0.4
2016-Feb-05 05:07N 40°41' W 074°09'2 4.0
2016-Feb-05 04:33N 40°39' W 074°09'3 2.9
2016-Feb-05 03:33N 40°38' W 074°12'4 3.8
2016-Feb-05 02:31N 40°38' W 074°07'1 0.7
2016-Feb-05 00:33N 40°39' W 074°09'1 1.1
2016-Feb-04 23:33N 40°40' W 074°08'3 2.7
2016-Feb-04 22:33N 40°39' W 074°05'0 0.2
2016-Feb-04 21:33N 40°39' W 074°05'0 0.0
2016-Feb-04 20:33N 40°39' W 074°05'0 0.0
2016-Feb-04 19:33N 40°39' W 074°05'0 0.0
2016-Feb-04 18:33N 40°39' W 074°05'2 0.3
2016-Feb-04 12:26N 40°39' W 074°07'4 3.8
2016-Feb-04 11:27N 40°38' W 074°12'4 4.8
2016-Feb-04 10:33N 40°39' W 074°07'4 4.0
2016-Feb-04 09:33N 40°41' W 074°02'5 5.0
2016-Feb-04 08:33N 40°46' W 074°01'7 0.2
2016-Feb-02 22:24N 40°52' W 073°56'5 6.4
2016-Feb-02 21:33N 40°47' W 073°59'6 6.0
2016-Feb-02 20:33N 40°41' W 074°02'5 5.0
2016-Feb-02 19:32N 40°39' W 074°08'3 1.4
2016-Feb-02 17:33N 40°39' W 074°11'8 8.3
2016-Feb-02 16:33N 40°40' W 074°01'2 1.8
2016-Feb-02 15:33N 40°39' W 074°02'1 0.7
2016-Feb-02 14:33N 40°38' W 074°03'0 0.0
2016-Feb-02 13:33N 40°38' W 074°03'0 0.0
2016-Feb-02 12:33N 40°38' W 074°03'0 0.0
2016-Feb-02 11:33N 40°38' W 074°03'0 0.0
2016-Feb-02 10:33N 40°38' W 074°03'1 1.0
2016-Feb-02 09:33N 40°39' W 074°02'2 1.8
2016-Feb-02 08:33N 40°40' W 074°00'0 0.1
2016-Feb-02 07:33N 40°40' W 074°00'0 0.0
2016-Feb-02 06:33N 40°40' W 074°00'3 2.5
2016-Feb-02 05:33N 40°39' W 074°03'7 3.0
2016-Feb-02 03:20N 40°38' W 074°12'5 6.6
2016-Feb-02 02:33N 40°39' W 074°05'1 1.2
2016-Feb-02 01:33N 40°40' W 074°04'0 0.0
2016-Feb-02 00:33N 40°40' W 074°04'0 0.0
2016-Feb-01 23:33N 40°40' W 074°04'0 0.0
2016-Feb-01 22:33N 40°40' W 074°04'0 0.0
2016-Feb-01 21:33N 40°40' W 074°04'1 1.1
2016-Feb-01 20:33N 40°40' W 074°03'5 4.9
2016-Feb-01 19:33N 40°45' W 074°01'4 3.8
2016-Feb-01 18:33N 40°41' W 074°02'5 2.0
2016-Feb-01 16:05N 40°38' W 074°07'0 0.0
2016-Feb-01 15:05N 40°38' W 074°07'0 0.0
2016-Feb-01 13:07N 40°38' W 074°07'0 0.0
2016-Feb-01 12:32N 40°38' W 074°07'0 0.0
2016-Feb-01 11:32N 40°38' W 074°07'0 0.0
2016-Feb-01 10:32N 40°38' W 074°07'0 0.0
2016-Feb-01 09:32N 40°38' W 074°07'0 0.0
2016-Feb-01 08:31N 40°38' W 074°07'0 0.0
2016-Feb-01 07:33N 40°38' W 074°07'0 0.0
2016-Feb-01 06:33N 40°38' W 074°07'0 0.1
2016-Feb-01 05:33N 40°39' W 074°07'5 5.3
2016-Feb-01 04:33N 40°40' W 074°00'5 4.6
2016-Feb-01 03:33N 40°39' W 074°06'4 3.2
2016-Feb-01 02:23N 40°39' W 074°11'0 0.0
2016-Feb-01 00:32N 40°39' W 074°11'0 0.0
2016-Jan-31 21:30N 40°39' W 074°11'3 3.1
2016-Jan-31 20:33N 40°41' W 074°09'0 0.0
2016-Jan-31 19:33N 40°41' W 074°09'1 1.0
2016-Jan-31 18:33N 40°41' W 074°08'2 2.1
2016-Jan-31 17:33N 40°39' W 074°07'0 0.3
2016-Jan-31 16:07N 40°38' W 074°07'0 0.0
2016-Jan-31 15:20N 40°38' W 074°07'0 0.0
2016-Jan-31 14:29N 40°38' W 074°07'0 0.0
2016-Jan-31 13:29N 40°38' W 074°07'1 0.8
2016-Jan-31 12:33N 40°39' W 074°06'3 2.7
2016-Jan-31 11:33N 40°40' W 074°03'3 3.3
2016-Jan-31 10:31N 40°38' W 074°07'0 0.0
2016-Jan-31 08:30N 40°38' W 074°07'0 0.0
2016-Jan-31 07:32N 40°38' W 074°07'0 0.4
2016-Jan-31 06:33N 40°39' W 074°07'2 2.1
2016-Jan-31 05:33N 40°41' W 074°09'0 0.0
2016-Jan-31 04:33N 40°41' W 074°09'0 0.0
2016-Jan-31 03:33N 40°41' W 074°09'0 0.0
2016-Jan-31 02:33N 40°41' W 074°09'0 0.0
2016-Jan-31 01:33N 40°41' W 074°09'0 0.0
2016-Jan-31 00:33N 40°41' W 074°09'0 0.0
2016-Jan-30 23:33N 40°41' W 074°09'0 0.0
2016-Jan-30 22:33N 40°41' W 074°09'1 1.0
2016-Jan-30 21:33N 40°41' W 074°10'0 0.0
2016-Jan-30 20:33N 40°41' W 074°10'2 1.6
2016-Jan-30 19:33N 40°40' W 074°09'3 2.5
2016-Jan-30 18:33N 40°39' W 074°06'1 1.3
2016-Jan-30 17:31N 40°39' W 074°07'0 0.0
2016-Jan-30 13:14N 40°39' W 074°07'1 2.0
2016-Jan-30 12:33N 40°39' W 074°06'3 2.8
2016-Jan-30 11:33N 40°40' W 074°02'1 0.6
2016-Jan-30 10:33N 40°40' W 074°03'4 4.4
2016-Jan-30 09:33N 40°40' W 074°08'0 0.1
2016-Jan-30 08:33N 40°40' W 074°08'3 0.3
2016-Jan-29 23:33N 40°39' W 074°05'2 2.5
2016-Jan-29 22:33N 40°40' W 074°08'1 1.5
2016-Jan-29 21:33N 40°41' W 074°09'0 0.0
2016-Jan-29 20:33N 40°41' W 074°09'0 0.0
2016-Jan-29 19:32N 40°41' W 074°09'4 3.6
2016-Jan-29 18:33N 40°38' W 074°12'0 0.3
2016-Jan-29 17:31N 40°38' W 074°12'0 0.0
2016-Jan-29 16:33N 40°38' W 074°12'0 0.0
2016-Jan-29 15:33N 40°38' W 074°12'0 0.0
2016-Jan-29 14:32N 40°38' W 074°12'0 0.0
2016-Jan-29 13:32N 40°38' W 074°12'0 0.0
2016-Jan-29 12:33N 40°38' W 074°12'4 4.1
2016-Jan-29 11:33N 40°39' W 074°07'0 0.4
2016-Jan-29 10:31N 40°39' W 074°07'0 0.0
2016-Jan-29 09:33N 40°38' W 074°07'0 0.0
2016-Jan-29 08:32N 40°38' W 074°07'  
Track history (hours):
 
Tides and Currents Weather Stations Pressure Air Temp Water Temp Dewpoint Dewpoint Depression Visibility Wind Speed Wind Dir Waves Ship Positions

Emerald Coast

Owner: Dann Marine Towing, LC, Chesapeake City, MD. More information available from US FCC via Universal Licensing System and Coast Guard Vessel Documentation Center.

Last reported at 2016-Feb-08 07:33 UTC. Time now 2016-Feb-08 08:18 UTC.
Position N 40°39' W 074°06'.

Length 28 m; draft 3 m.

Type: Towing. MMSI: 367097920.

Date/timePositionNaut miles runAvg speedWind from/ knotsBaromVisibWave heightAir tempDewpointWater temp
2016-Feb-08 07:33N 40°39' W 074°06'5 5.0
2016-Feb-08 06:33N 40°40' W 074°00'1 0.8
2016-Feb-08 05:33N 40°40' W 074°01'4 4.3
2016-Feb-08 04:32N 40°39' W 074°07'2 2.4
2016-Feb-08 03:33N 40°39' W 074°10'2 1.0
2016-Feb-08 01:31N 40°39' W 074°07'3 3.1
2016-Feb-08 00:33N 40°39' W 074°11'3 2.9
2016-Feb-07 23:33N 40°41' W 074°09'0 0.0
2016-Feb-07 22:33N 40°41' W 074°09'0 0.0
2016-Feb-07 21:33N 40°41' W 074°09'0 0.0
2016-Feb-07 20:33N 40°41' W 074°09'0 0.0
2016-Feb-07 19:33N 40°41' W 074°09'0 0.0
2016-Feb-07 18:33N 40°41' W 074°09'0 0.0
2016-Feb-07 17:33N 40°41' W 074°09'1 0.9
2016-Feb-07 16:33N 40°42' W 074°08'0 0.0
2016-Feb-07 15:27N 40°42' W 074°08'0 0.0
2016-Feb-07 14:33N 40°42' W 074°08'0 0.0
2016-Feb-07 13:33N 40°42' W 074°08'0 0.0
2016-Feb-07 12:33N 40°42' W 074°08'0 0.0
2016-Feb-07 11:33N 40°42' W 074°08'0 0.0
2016-Feb-07 10:33N 40°42' W 074°08'0 0.0
2016-Feb-07 09:30N 40°42' W 074°08'0 0.0
2016-Feb-07 08:31N 40°42' W 074°08'0 0.0
2016-Feb-07 07:31N 40°42' W 074°08'0 0.0
2016-Feb-07 06:29N 40°42' W 074°08'0 0.0
2016-Feb-07 05:33N 40°42' W 074°08'0 0.3
2016-Feb-07 04:25N 40°42' W 074°09'0 0.0
2016-Feb-07 03:31N 40°42' W 074°09'0 0.0
2016-Feb-07 02:29N 40°42' W 074°09'0 0.0
2016-Feb-07 00:32N 40°42' W 074°09'0 0.0
2016-Feb-06 23:31N 40°42' W 074°09'0 0.0
2016-Feb-06 22:30N 40°42' W 074°09'0 0.2
2016-Feb-06 21:33N 40°42' W 074°08'0 0.0
2016-Feb-06 20:33N 40°42' W 074°08'0 0.0
2016-Feb-06 19:33N 40°42' W 074°08'0 0.0
2016-Feb-06 18:32N 40°42' W 074°08'0 0.0
2016-Feb-06 17:32N 40°42' W 074°08'0 0.5
2016-Feb-06 16:33N 40°41' W 074°08'0 0.0
2016-Feb-06 15:33N 40°41' W 074°08'0 0.0
2016-Feb-06 14:33N 40°41' W 074°08'0 0.0
2016-Feb-06 13:33N 40°41' W 074°08'0 0.0
2016-Feb-06 12:33N 40°41' W 074°08'0 0.0
2016-Feb-06 11:33N 40°41' W 074°08'0 0.0
2016-Feb-06 10:33N 40°41' W 074°08'0 0.0
2016-Feb-06 09:33N 40°41' W 074°08'1 1.1
2016-Feb-06 08:33N 40°40' W 074°08'2 1.6
2016-Feb-06 07:33N 40°39' W 074°08'2 2.1
2016-Feb-06 06:33N 40°39' W 074°05'0 0.0
2016-Feb-06 05:33N 40°39' W 074°05'0 0.0
2016-Feb-06 04:33N 40°39' W 074°05'0 0.0
2016-Feb-06 03:33N 40°39' W 074°05'0 0.0
2016-Feb-06 02:33N 40°39' W 074°05'0 0.0
2016-Feb-06 01:33N 40°39' W 074°05'1 0.9
2016-Feb-06 00:33N 40°39' W 074°06'1 0.1
2016-Feb-05 19:24N 40°39' W 074°07'1 1.0
2016-Feb-05 18:33N 40°39' W 074°06'1 0.1
2016-Feb-05 11:33N 40°39' W 074°05'1 1.4
2016-Feb-05 10:33N 40°39' W 074°07'2 2.3
2016-Feb-05 09:33N 40°41' W 074°08'0 0.0
2016-Feb-05 08:33N 40°41' W 074°08'2 2.3
2016-Feb-05 07:30N 40°39' W 074°06'3 3.1
2016-Feb-05 06:33N 40°41' W 074°09'1 0.4
2016-Feb-05 05:07N 40°41' W 074°09'2 4.0
2016-Feb-05 04:33N 40°39' W 074°09'3 2.9
2016-Feb-05 03:33N 40°38' W 074°12'4 3.8
2016-Feb-05 02:31N 40°38' W 074°07'1 0.7
2016-Feb-05 00:33N 40°39' W 074°09'1 1.1
2016-Feb-04 23:33N 40°40' W 074°08'3 2.7
2016-Feb-04 22:33N 40°39' W 074°05'0 0.2
2016-Feb-04 21:33N 40°39' W 074°05'0 0.0
2016-Feb-04 20:33N 40°39' W 074°05'0 0.0
2016-Feb-04 19:33N 40°39' W 074°05'0 0.0
2016-Feb-04 18:33N 40°39' W 074°05'2 0.3
2016-Feb-04 12:26N 40°39' W 074°07'4 3.8
2016-Feb-04 11:27N 40°38' W 074°12'4 4.8
2016-Feb-04 10:33N 40°39' W 074°07'4 4.0
2016-Feb-04 09:33N 40°41' W 074°02'5 5.0
2016-Feb-04 08:33N 40°46' W 074°01'7 0.2
2016-Feb-02 22:24N 40°52' W 073°56'5 6.4
2016-Feb-02 21:33N 40°47' W 073°59'6 6.0
2016-Feb-02 20:33N 40°41' W 074°02'5 5.0
2016-Feb-02 19:32N 40°39' W 074°08'3 1.4
2016-Feb-02 17:33N 40°39' W 074°11'8 8.3
2016-Feb-02 16:33N 40°40' W 074°01'2 1.8
2016-Feb-02 15:33N 40°39' W 074°02'1 0.7
2016-Feb-02 14:33N 40°38' W 074°03'0 0.0
2016-Feb-02 13:33N 40°38' W 074°03'0 0.0
2016-Feb-02 12:33N 40°38' W 074°03'0 0.0
2016-Feb-02 11:33N 40°38' W 074°03'0 0.0
2016-Feb-02 10:33N 40°38' W 074°03'1 1.0
2016-Feb-02 09:33N 40°39' W 074°02'2 1.8
2016-Feb-02 08:33N 40°40' W 074°00'0 0.1
2016-Feb-02 07:33N 40°40' W 074°00'0 0.0
2016-Feb-02 06:33N 40°40' W 074°00'3 2.5
2016-Feb-02 05:33N 40°39' W 074°03'7 3.0
2016-Feb-02 03:20N 40°38' W 074°12'5 6.6
2016-Feb-02 02:33N 40°39' W 074°05'1 1.2
2016-Feb-02 01:33N 40°40' W 074°04'0 0.0
2016-Feb-02 00:33N 40°40' W 074°04'0 0.0
2016-Feb-01 23:33N 40°40' W 074°04'0 0.0
2016-Feb-01 22:33N 40°40' W 074°04'0 0.0
2016-Feb-01 21:33N 40°40' W 074°04'1 1.1
2016-Feb-01 20:33N 40°40' W 074°03'5 4.9
2016-Feb-01 19:33N 40°45' W 074°01'4 3.8
2016-Feb-01 18:33N 40°41' W 074°02'5 2.0
2016-Feb-01 16:05N 40°38' W 074°07'0 0.0
2016-Feb-01 15:05N 40°38' W 074°07'0 0.0
2016-Feb-01 13:07N 40°38' W 074°07'0 0.0
2016-Feb-01 12:32N 40°38' W 074°07'0 0.0
2016-Feb-01 11:32N 40°38' W 074°07'0 0.0
2016-Feb-01 10:32N 40°38' W 074°07'0 0.0
2016-Feb-01 09:32N 40°38' W 074°07'0 0.0
2016-Feb-01 08:31N 40°38' W 074°07'0 0.0
2016-Feb-01 07:33N 40°38' W 074°07'0 0.0
2016-Feb-01 06:33N 40°38' W 074°07'0 0.1
2016-Feb-01 05:33N 40°39' W 074°07'5 5.3
2016-Feb-01 04:33N 40°40' W 074°00'5 4.6
2016-Feb-01 03:33N 40°39' W 074°06'4 3.2
2016-Feb-01 02:23N 40°39' W 074°11'0 0.0
2016-Feb-01 00:32N 40°39' W 074°11'0 0.0
2016-Jan-31 21:30N 40°39' W 074°11'3 3.1
2016-Jan-31 20:33N 40°41' W 074°09'0 0.0
2016-Jan-31 19:33N 40°41' W 074°09'1 1.0
2016-Jan-31 18:33N 40°41' W 074°08'2 2.1
2016-Jan-31 17:33N 40°39' W 074°07'0 0.3
2016-Jan-31 16:07N 40°38' W 074°07'0 0.0
2016-Jan-31 15:20N 40°38' W 074°07'0 0.0
2016-Jan-31 14:29N 40°38' W 074°07'0 0.0
2016-Jan-31 13:29N 40°38' W 074°07'1 0.8
2016-Jan-31 12:33N 40°39' W 074°06'3 2.7
2016-Jan-31 11:33N 40°40' W 074°03'3 3.3
2016-Jan-31 10:31N 40°38' W 074°07'0 0.0
2016-Jan-31 08:30N 40°38' W 074°07'0 0.0
2016-Jan-31 07:32N 40°38' W 074°07'0 0.4
2016-Jan-31 06:33N 40°39' W 074°07'2 2.1
2016-Jan-31 05:33N 40°41' W 074°09'0 0.0
2016-Jan-31 04:33N 40°41' W 074°09'0 0.0
2016-Jan-31 03:33N 40°41' W 074°09'0 0.0
2016-Jan-31 02:33N 40°41' W 074°09'0 0.0
2016-Jan-31 01:33N 40°41' W 074°09'0 0.0
2016-Jan-31 00:33N 40°41' W 074°09'0 0.0
2016-Jan-30 23:33N 40°41' W 074°09'0 0.0
2016-Jan-30 22:33N 40°41' W 074°09'1 1.0
2016-Jan-30 21:33N 40°41' W 074°10'0 0.0
2016-Jan-30 20:33N 40°41' W 074°10'2 1.6
2016-Jan-30 19:33N 40°40' W 074°09'3 2.5
2016-Jan-30 18:33N 40°39' W 074°06'1 1.3
2016-Jan-30 17:31N 40°39' W 074°07'0 0.0
2016-Jan-30 13:14N 40°39' W 074°07'1 2.0
2016-Jan-30 12:33N 40°39' W 074°06'3 2.8
2016-Jan-30 11:33N 40°40' W 074°02'1 0.6
2016-Jan-30 10:33N 40°40' W 074°03'4 4.4
2016-Jan-30 09:33N 40°40' W 074°08'0 0.1
2016-Jan-30 08:33N 40°40' W 074°08'3 0.3
2016-Jan-29 23:33N 40°39' W 074°05'2 2.5
2016-Jan-29 22:33N 40°40' W 074°08'1 1.5
2016-Jan-29 21:33N 40°41' W 074°09'0 0.0
2016-Jan-29 20:33N 40°41' W 074°09'0 0.0
2016-Jan-29 19:32N 40°41' W 074°09'4 3.6
2016-Jan-29 18:33N 40°38' W 074°12'0 0.3
2016-Jan-29 17:31N 40°38' W 074°12'0 0.0
2016-Jan-29 16:33N 40°38' W 074°12'0 0.0
2016-Jan-29 15:33N 40°38' W 074°12'0 0.0
2016-Jan-29 14:32N 40°38' W 074°12'0 0.0
2016-Jan-29 13:32N 40°38' W 074°12'0 0.0
2016-Jan-29 12:33N 40°38' W 074°12'4 4.1
2016-Jan-29 11:33N 40°39' W 074°07'0 0.4
2016-Jan-29 10:31N 40°39' W 074°07'0 0.0
2016-Jan-29 09:33N 40°38' W 074°07'0 0.0
2016-Jan-29 08:32N 40°38' W 074°07'  

Dump ship's entire track history